Time;durP1;ratioP1;P1;durP2;ratioP2;P2;SDS_P1;SDS_P2;PMS_P1;PMS_P2;Temp;Humidity;BMP_temperature;BMP_pressure;BME280_temperature;BME280_humidity;BME280_pressure;Samples;Min_cycle;Max_cycle;Signal;HPM_P1;HPM_P2
2021/04/08 00:02:44;;;;;;;13.45;7.85;;;;;;;-2.42;76.26;98898.95;471835;1171;114789;-62
2021/04/08 00:12:48;;;;;;;27.80;13.35;;;;;;;-2.49;75.91;98892.25;471705;1170;114336;-64
2021/04/08 00:22:52;;;;;;;12.20;8.53;;;;;;;-2.66;76.11;98887.47;470107;1171;114903;-62
2021/04/08 00:32:55;;;;;;;17.90;9.65;;;;;;;-2.62;76.25;98886.52;471080;1171;114082;-61
2021/04/08 00:42:59;;;;;;;16.10;8.75;;;;;;;-2.34;76.37;98872.20;471038;1171;114290;-62
2021/04/08 00:53:08;;;;;;;16.30;8.70;;;;;;;-2.09;76.18;98876.77;470983;1170;114297;-64
2021/04/08 01:03:12;;;;;;;13.40;8.45;;;;;;;-1.98;76.01;98879.94;471586;1170;115285;-62
2021/04/08 01:13:20;;;;;;;24.97;9.30;;;;;;;-1.81;75.66;98888.99;471555;1170;114384;-61
2021/04/08 01:23:50;;;;;;;11.73;7.87;;;;;;;-1.65;75.42;98902.33;471320;1171;115548;-62
2021/04/08 01:34:01;;;;;;;15.00;7.85;;;;;;;-1.41;75.14;98893.11;471345;1171;114525;-62
2021/04/08 01:44:06;;;;;;;13.27;7.73;;;;;;;-1.19;74.55;98900.27;471174;1171;113997;-63
2021/04/08 01:54:12;;;;;;;17.10;8.20;;;;;;;-1.04;74.30;98901.59;471443;1171;115659;-63
2021/04/08 02:04:17;;;;;;;12.75;8.00;;;;;;;-0.91;74.20;98904.69;471206;1171;114976;-64
2021/04/08 02:14:22;;;;;;;10.40;7.65;;;;;;;-0.83;73.69;98902.71;471267;1170;114828;-63
2021/04/08 02:24:28;;;;;;;13.55;7.75;;;;;;;-0.77;73.65;98899.11;471766;1170;114396;-63
2021/04/08 02:34:31;;;;;;;10.97;6.70;;;;;;;-0.75;74.40;98917.95;471414;1170;113985;-63
2021/04/08 02:44:35;;;;;;;14.15;8.75;;;;;;;-0.78;75.00;98912.89;471537;1170;114371;-63
2021/04/08 02:54:47;;;;;;;9.73;7.63;;;;;;;-0.79;75.70;98922.38;471622;1171;114766;-65
2021/04/08 03:04:59;;;;;;;15.05;10.00;;;;;;;-0.90;76.48;98930.39;471674;1171;115078;-64
2021/04/08 03:15:04;;;;;;;14.40;9.00;;;;;;;-0.99;77.11;98931.50;471976;1171;114146;-62
2021/04/08 03:25:10;;;;;;;12.37;10.17;;;;;;;-1.10;77.34;98930.95;471690;1171;113986;-63
2021/04/08 03:35:16;;;;;;;12.95;9.95;;;;;;;-1.10;77.88;98935.24;471671;1170;114761;-62
2021/04/08 03:45:20;;;;;;;12.87;9.90;;;;;;;-1.10;78.55;98937.81;472054;1171;114003;-66
2021/04/08 03:55:27;;;;;;;13.87;10.43;;;;;;;-0.97;78.86;98946.08;471884;1171;114880;-63
2021/04/08 04:05:31;;;;;;;14.47;10.50;;;;;;;-0.87;78.74;98945.77;471926;1171;114620;-63
2021/04/08 04:15:40;;;;;;;15.40;10.35;;;;;;;-0.73;79.10;98962.61;471306;1170;114891;-62
2021/04/08 04:25:44;;;;;;;16.13;11.63;;;;;;;-0.64;79.23;98966.66;470902;1171;114536;-63
2021/04/08 04:35:48;;;;;;;14.30;10.70;;;;;;;-0.57;79.38;98958.70;470975;1171;114526;-63
2021/04/08 04:45:52;;;;;;;16.80;10.93;;;;;;;-0.43;79.37;98970.34;471102;1171;114224;-63
2021/04/08 04:55:56;;;;;;;15.70;11.40;;;;;;;-0.29;79.64;98980.28;471429;1171;114658;-64
2021/04/08 05:06:01;;;;;;;14.65;11.05;;;;;;;-0.16;79.64;98984.18;471161;1171;114509;-63
2021/04/08 05:16:06;;;;;;;15.03;11.90;;;;;;;-0.08;79.51;98996.84;471284;1170;114663;-62
2021/04/08 05:26:09;;;;;;;12.70;10.20;;;;;;;0.09;79.19;99004.09;471329;1170;114410;-63
2021/04/08 05:36:13;;;;;;;14.17;10.77;;;;;;;0.21;79.44;99025.26;471472;1171;114438;-65
2021/04/08 05:46:16;;;;;;;13.65;10.20;;;;;;;0.31;79.24;99042.16;470956;1170;114324;-62
2021/04/08 05:56:20;;;;;;;12.77;10.60;;;;;;;0.45;79.26;99057.25;473880;1171;114369;-63
2021/04/08 06:06:24;;;;;;;14.03;11.60;;;;;;;0.79;78.77;99070.83;471169;1171;114420;-63
2021/04/08 06:16:27;;;;;;;11.45;10.25;;;;;;;1.06;78.77;99100.11;470980;1171;114785;-63
2021/04/08 06:26:31;;;;;;;12.37;10.53;;;;;;;1.06;78.82;99109.63;471075;1170;114229;-62
2021/04/08 06:36:34;;;;;;;11.40;9.67;;;;;;;1.27;78.66;99118.40;470971;1171;114041;-62
2021/04/08 06:46:42;;;;;;;12.30;8.75;;;;;;;1.52;78.64;99131.36;471065;1171;113825;-63
2021/04/08 06:56:47;;;;;;;10.07;7.10;;;;;;;1.75;77.47;99137.48;471033;1169;114142;-64
2021/04/08 07:06:52;;;;;;;7.65;5.45;;;;;;;2.55;76.90;99157.94;471356;1172;114813;-63
2021/04/08 07:16:56;;;;;;;7.13;4.73;;;;;;;3.10;75.90;99180.03;471031;1170;114494;-63
2021/04/08 07:27:02;;;;;;;3.90;3.30;;;;;;;2.79;75.25;99189.87;470935;1170;113678;-64
2021/04/08 07:37:07;;;;;;;6.17;4.23;;;;;;;2.56;75.29;99219.23;471013;1170;113900;-61
2021/04/08 07:47:22;;;;;;;6.55;3.85;;;;;;;2.47;75.34;99238.57;471503;1170;113706;-62
2021/04/08 07:57:26;;;;;;;6.70;4.90;;;;;;;2.46;75.82;99266.22;471236;1170;114297;-62
2021/04/08 08:07:31;;;;;;;6.83;5.87;;;;;;;2.40;75.90;99288.92;471301;1170;113670;-63
2021/04/08 08:17:36;;;;;;;7.80;5.70;;;;;;;2.12;75.77;99300.25;471085;1171;113928;-64
2021/04/08 08:27:42;;;;;;;9.00;6.05;;;;;;;2.05;76.00;99315.16;471073;1170;114252;-63
2021/04/08 08:37:46;;;;;;;8.75;5.40;;;;;;;2.14;75.67;99334.72;470855;1170;114462;-65
2021/04/08 08:47:59;;;;;;;9.15;6.70;;;;;;;1.99;75.75;99349.88;471346;1171;113769;-64
2021/04/08 08:58:05;;;;;;;12.43;6.23;;;;;;;2.84;76.11;99361.67;471212;1171;113877;-65
2021/04/08 09:08:12;;;;;;;8.90;4.73;;;;;;;3.50;75.21;99363.58;471076;1171;114263;-65
2021/04/08 09:18:28;;;;;;;9.80;4.20;;;;;;;3.71;74.13;99367.98;470893;1171;115159;-68
2021/04/08 09:28:40;;;;;;;7.60;4.00;;;;;;;4.73;71.88;99381.14;470913;1171;114048;-69
2021/04/08 09:38:44;;;;;;;8.47;3.50;;;;;;;4.09;70.21;99388.16;471291;1171;114106;-69
2021/04/08 09:48:50;;;;;;;9.17;3.47;;;;;;;4.16;71.98;99410.39;471767;1171;113935;-69
2021/04/08 09:58:58;;;;;;;7.77;3.77;;;;;;;4.59;71.39;99428.58;471128;1171;113944;-65
2021/04/08 10:09:06;;;;;;;;;;;;;;;4.49;70.72;99444.55;471089;1171;114863;-64
2021/04/08 10:19:09;;;;;;;5.95;4.15;;;;;;;4.22;70.84;99449.11;471205;1169;100931;-62
2021/04/08 10:29:13;;;;;;;8.30;4.27;;;;;;;5.11;70.48;99451.51;471217;1170;113685;-65
2021/04/08 10:39:19;;;;;;;6.47;3.50;;;;;;;6.79;69.87;99451.53;471074;1171;114052;-65
2021/04/08 10:49:26;;;;;;;6.23;3.13;;;;;;;7.33;64.77;99454.89;471201;1171;113672;-72
2021/04/08 10:59:31;;;;;;;6.00;3.90;;;;;;;6.20;65.07;99475.27;470579;1171;113824;-73
2021/04/08 11:09:34;;;;;;;5.57;3.50;;;;;;;4.85;65.93;99486.45;471908;1170;113705;-67
2021/04/08 11:19:39;;;;;;;6.83;4.83;;;;;;;4.93;67.08;99515.61;471383;1171;114402;-69
2021/04/08 11:29:52;;;;;;;9.13;5.70;;;;;;;4.97;67.08;99516.33;469567;1171;114338;-71
2021/04/08 11:40:00;;;;;;;9.60;5.30;;;;;;;5.12;67.72;99523.48;472021;1171;114071;-71
2021/04/08 11:50:11;;;;;;;;;;;;;;;5.88;67.55;99527.11;472094;1171;114891;-63
2021/04/08 12:00:16;;;;;;;6.93;5.40;;;;;;;5.13;66.15;99538.18;471560;1171;101060;-67
2021/04/08 12:10:28;;;;;;;7.38;5.75;;;;;;;5.11;67.24;99549.56;455562;1171;20003272;-65
2021/04/08 12:20:36;;;;;;;8.65;5.85;;;;;;;4.67;67.02;99566.09;471590;1170;114571;-65
2021/04/08 12:30:56;;;;;;;6.47;4.17;;;;;;;4.23;68.79;99562.57;470838;1171;113700;-61
2021/04/08 12:41:01;;;;;;;6.87;5.33;;;;;;;4.54;69.05;99579.59;470946;1171;113669;-61
2021/04/08 12:51:06;;;;;;;7.37;4.53;;;;;;;5.31;68.89;99580.80;471251;1171;115097;-65
2021/04/08 13:01:10;;;;;;;4.70;3.43;;;;;;;5.52;68.07;99591.22;470855;1170;113670;-65
2021/04/08 13:11:14;;;;;;;4.90;4.40;;;;;;;4.54;68.64;99613.40;471075;1171;115092;-64
2021/04/08 13:21:39;;;;;;;4.45;3.80;;;;;;;4.70;68.99;99613.65;470898;1171;113694;-63
2021/04/08 13:31:42;;;;;;;5.05;4.35;;;;;;;4.74;68.77;99617.81;471027;1171;114132;-60
2021/04/08 13:41:46;;;;;;;8.20;5.00;;;;;;;4.85;68.49;99629.55;471223;1171;114430;-63
2021/04/08 13:51:50;;;;;;;4.73;4.20;;;;;;;5.21;68.91;99639.38;471277;1171;113860;-63
2021/04/08 14:01:55;;;;;;;7.30;4.50;;;;;;;4.97;67.87;99664.66;471361;1171;114136;-64
2021/04/08 14:11:59;;;;;;;4.23;3.83;;;;;;;4.90;68.93;99667.48;470591;1171;114351;-63
2021/04/08 14:22:02;;;;;;;6.00;4.77;;;;;;;5.02;68.18;99676.58;470497;1171;114240;-62
2021/04/08 14:32:08;;;;;;;5.63;5.03;;;;;;;5.38;67.57;99689.93;472742;1171;113766;-63
2021/04/08 14:42:14;;;;;;;7.80;5.90;;;;;;;5.44;67.02;99698.33;473041;1170;114183;-62
2021/04/08 14:52:18;;;;;;;7.57;5.97;;;;;;;5.35;66.69;99706.52;471196;1170;113712;-63
2021/04/08 15:02:22;;;;;;;7.70;4.93;;;;;;;5.45;65.79;99713.05;470937;1171;113964;-64
2021/04/08 15:12:26;;;;;;;6.33;4.63;;;;;;;5.41;65.96;99727.08;471157;1171;114176;-63
2021/04/08 15:22:29;;;;;;;8.05;4.95;;;;;;;5.22;65.88;99729.58;471168;1170;113811;-64
2021/04/08 15:32:34;;;;;;;5.10;3.07;;;;;;;4.76;65.47;99755.64;470943;1171;113968;-62
2021/04/08 15:42:38;;;;;;;5.80;3.17;;;;;;;4.47;66.55;99770.55;471242;1171;114070;-63
2021/04/08 15:52:42;;;;;;;4.40;3.78;;;;;;;4.13;67.18;99774.33;455251;1170;20002695;-64
2021/04/08 16:02:47;;;;;;;7.35;4.65;;;;;;;4.17;67.42;99792.38;471208;1170;114087;-63
2021/04/08 16:12:51;;;;;;;10.03;4.80;;;;;;;4.32;67.77;99801.39;471138;1171;114346;-63
2021/04/08 16:22:57;;;;;;;8.50;4.80;;;;;;;4.22;67.08;99810.41;471109;1170;113871;-64
2021/04/08 16:33:02;;;;;;;12.00;5.10;;;;;;;3.90;67.58;99822.72;471275;1170;114195;-64
2021/04/08 16:43:05;;;;;;;8.70;5.80;;;;;;;3.76;67.94;99830.98;471252;1170;114264;-63
2021/04/08 16:53:09;;;;;;;8.30;5.73;;;;;;;3.51;68.06;99844.72;471127;1171;114287;-63
2021/04/08 17:03:13;;;;;;;12.97;7.20;;;;;;;3.46;68.39;99855.27;471145;1171;114449;-62
2021/04/08 17:13:17;;;;;;;9.80;6.57;;;;;;;3.19;68.96;99865.56;470623;1170;113846;-64
2021/04/08 17:23:20;;;;;;;13.03;6.40;;;;;;;3.02;69.49;99881.61;471131;1171;114349;-63
2021/04/08 17:33:24;;;;;;;15.35;8.60;;;;;;;2.96;69.72;99897.36;470694;1170;114860;-64
2021/04/08 17:43:28;;;;;;;11.87;8.07;;;;;;;2.96;70.13;99915.52;470669;1171;114798;-62
2021/04/08 17:53:32;;;;;;;13.97;6.83;;;;;;;2.82;70.55;99923.67;470810;1171;115109;-61
2021/04/08 18:03:36;;;;;;;13.95;6.95;;;;;;;2.78;70.39;99948.83;469737;1170;113840;-59
2021/04/08 18:13:40;;;;;;;10.25;5.50;;;;;;;2.71;71.97;99956.81;462923;1171;10112503;-64
2021/04/08 18:23:43;;;;;;;4.87;3.53;;;;;;;2.26;72.20;99974.30;470967;1171;114408;-64
2021/04/08 18:33:49;;;;;;;11.27;7.57;;;;;;;2.14;72.79;99980.64;470910;1170;113830;-65
2021/04/08 18:43:52;;;;;;;6.20;3.15;;;;;;;2.05;73.40;99989.45;471327;1170;114070;-65
2021/04/08 18:53:56;;;;;;;7.30;4.87;;;;;;;1.90;73.79;100002.75;471351;1170;114890;-65
2021/04/08 19:04:02;;;;;;;10.50;6.27;;;;;;;1.80;74.43;100008.13;471346;1171;114152;-63
2021/04/08 19:14:06;;;;;;;11.23;6.47;;;;;;;1.79;74.66;100011.59;471606;1171;114801;-63
2021/04/08 19:24:11;;;;;;;10.00;5.80;;;;;;;1.77;74.55;100017.69;471658;1171;114726;-62
2021/04/08 19:34:15;;;;;;;11.17;5.57;;;;;;;1.72;74.48;100022.13;471497;1171;116013;-63
2021/04/08 19:44:18;;;;;;;12.07;6.77;;;;;;;1.66;75.02;100030.86;471420;1171;114599;-60
2021/04/08 19:54:23;;;;;;;12.03;8.83;;;;;;;1.62;75.76;100027.48;471198;1171;113957;-62
2021/04/08 20:04:27;;;;;;;15.55;9.95;;;;;;;1.53;75.85;100019.89;470665;1170;114421;-62
2021/04/08 20:14:30;;;;;;;20.25;11.75;;;;;;;1.48;75.75;100029.50;470930;1171;114575;-66
2021/04/08 20:24:35;;;;;;;21.27;12.77;;;;;;;1.41;75.54;100026.17;471082;1170;114292;-62
2021/04/08 20:34:39;;;;;;;27.20;15.70;;;;;;;1.32;75.52;100032.36;471210;1171;114503;-62
2021/04/08 20:44:43;;;;;;;27.03;13.60;;;;;;;1.20;74.83;100036.05;462875;1170;10001923;-64
2021/04/08 20:54:48;;;;;;;23.70;13.90;;;;;;;1.04;75.45;100035.46;471515;1171;115641;-58
2021/04/08 21:04:51;;;;;;;29.97;16.10;;;;;;;0.80;75.16;100049.64;463270;1169;10002554;-66
2021/04/08 21:14:56;;;;;;;23.07;14.90;;;;;;;0.48;75.12;100045.86;470662;1171;115053;-64
2021/04/08 21:24:59;;;;;;;23.00;13.60;;;;;;;0.21;75.55;100061.73;470785;1171;114808;-65
2021/04/08 21:35:06;;;;;;;24.63;12.17;;;;;;;-0.03;75.48;100073.23;470865;1170;114393;-65
2021/04/08 21:45:13;;;;;;;22.50;12.20;;;;;;;-0.17;76.14;100069.09;471109;1170;114811;-65
2021/04/08 21:55:20;;;;;;;19.50;10.20;;;;;;;-0.38;75.90;100079.66;470398;1171;114477;-63
2021/04/08 22:05:24;;;;;;;22.80;10.68;;;;;;;-0.66;76.28;100096.28;470953;1170;115031;-62
2021/04/08 22:15:29;;;;;;;16.43;8.87;;;;;;;-0.85;76.46;100111.08;470645;1171;115287;-63
2021/04/08 22:25:35;;;;;;;16.75;9.75;;;;;;;-0.96;76.64;100105.16;470017;1171;114301;-63
2021/04/08 22:35:39;;;;;;;20.33;9.17;;;;;;;-1.13;76.72;100108.73;471504;1170;114155;-64
2021/04/08 22:45:43;;;;;;;23.50;12.60;;;;;;;-1.33;76.89;100108.85;471201;1171;114152;-63
2021/04/08 22:55:46;;;;;;;21.15;10.90;;;;;;;-1.56;76.97;100115.00;471026;1171;116113;-62
2021/04/08 23:05:51;;;;;;;20.27;11.30;;;;;;;-1.71;77.10;100111.66;470900;1170;114397;-63
2021/04/08 23:15:55;;;;;;;15.47;9.40;;;;;;;-1.81;77.50;100115.14;471022;1171;114441;-66
2021/04/08 23:25:59;;;;;;;19.10;10.55;;;;;;;-2.03;77.72;100110.08;471393;1170;114320;-64
2021/04/08 23:36:04;;;;;;;16.75;11.00;;;;;;;-2.16;77.71;100106.72;471416;1171;114711;-63
2021/04/08 23:46:08;;;;;;;17.90;10.80;;;;;;;-2.34;78.03;100115.34;471696;1171;114888;-73
2021/04/08 23:56:12;;;;;;;22.77;11.77;;;;;;;-2.54;78.32;100103.38;471949;1171;114641;-74
